createdAt,value
2019-02-06T11:23:41.626Z,7.20
2019-02-06T11:26:09.896Z,7.00
2019-02-06T11:28:39.049Z,6.80
2019-02-06T11:31:10.079Z,6.70
2019-02-06T11:33:39.987Z,6.70
2019-02-06T11:36:08.456Z,6.60
2019-02-06T11:38:38.873Z,6.50
2019-02-06T11:41:07.223Z,6.50
2019-02-06T11:43:35.568Z,6.50
2019-02-06T11:46:04.762Z,6.40
2019-02-06T11:48:33.043Z,6.40
2019-02-06T11:51:01.323Z,6.40
2019-02-06T11:53:30.024Z,6.50
2019-02-06T11:55:58.354Z,6.40
2019-02-06T11:58:26.705Z,6.40
2019-02-06T12:00:59.325Z,6.40
2019-02-06T12:03:27.599Z,6.50
2019-02-06T12:05:57.357Z,6.50
2019-02-06T12:08:26.115Z,6.60
2019-02-06T12:10:55.156Z,6.60
2019-02-06T12:13:23.476Z,6.60
2019-02-06T12:15:51.860Z,6.60
2019-02-06T12:18:20.367Z,6.60
2019-02-06T12:20:48.749Z,6.60
2019-02-06T12:23:17.115Z,6.70
2019-02-06T12:25:47.461Z,6.70
2019-02-06T12:28:15.859Z,6.70
2019-02-06T12:30:44.335Z,6.80
2019-02-06T12:33:12.627Z,6.80
2019-02-06T12:35:40.967Z,6.80
2019-02-06T12:38:09.297Z,6.80
2019-02-06T12:40:37.728Z,6.80
2019-02-06T12:43:07.255Z,6.80
2019-02-06T12:45:37.235Z,6.80
2019-02-06T12:48:05.767Z,6.80
2019-02-06T12:50:34.074Z,6.70
2019-02-06T12:53:02.428Z,6.70
2019-02-06T12:55:34.028Z,6.70
2019-02-06T12:58:02.302Z,6.80
2019-02-06T13:00:32.977Z,6.80
2019-02-06T13:03:01.247Z,6.80
2019-02-06T13:05:30.260Z,6.90
2019-02-06T13:07:58.550Z,6.90
2019-02-06T13:10:34.018Z,7.00
2019-02-06T13:12:56.861Z,7.10
2019-02-06T13:15:25.231Z,7.10
2019-02-06T13:17:55.535Z,7.10
2019-02-06T13:20:32.163Z,7.10
2019-02-06T13:23:00.442Z,7.10
2019-02-06T13:25:28.908Z,7.10
2019-02-06T13:27:57.248Z,7.10
2019-02-06T13:30:31.312Z,7.10
2019-02-06T13:32:58.938Z,7.10
2019-02-06T13:35:27.222Z,7.00
2019-02-06T13:37:55.558Z,7.10
2019-02-06T13:40:28.268Z,7.00
2019-02-06T13:42:57.755Z,7.00
2019-02-06T13:45:29.193Z,7.00
2019-02-06T13:47:57.509Z,7.00
2019-02-06T13:50:26.012Z,7.10
2019-02-06T13:52:54.282Z,7.10
2019-02-06T13:55:22.576Z,7.10
2019-02-06T13:57:50.912Z,7.10
2019-02-06T14:00:28.072Z,7.10
2019-02-06T14:02:56.685Z,7.20
2019-02-06T14:05:27.008Z,7.20
2019-02-06T14:07:57.833Z,7.20
2019-02-06T14:10:28.360Z,7.20
2019-02-06T14:12:56.740Z,7.20
2019-02-06T14:15:29.308Z,7.20
2019-02-06T14:17:57.598Z,7.20
2019-02-06T14:20:25.936Z,7.20
2019-02-06T14:23:07.519Z,7.20
2019-02-06T14:25:41.663Z,7.20
2019-02-06T14:28:48.059Z,7.20
2019-02-06T14:31:22.550Z,7.20
2019-02-06T14:34:11.860Z,7.20
2019-02-06T14:36:58.356Z,7.20
2019-02-06T14:39:45.598Z,7.10
2019-02-06T14:42:26.009Z,7.10
2019-02-06T14:45:17.162Z,7.10
2019-02-06T14:48:08.221Z,7.10
2019-02-06T14:50:39.772Z,7.10
2019-02-06T14:53:26.640Z,7.10
2019-02-06T14:55:59.335Z,7.20
2019-02-06T14:58:48.276Z,7.20
2019-02-06T15:01:25.370Z,7.30
2019-02-06T15:04:03.062Z,7.30
2019-02-06T15:07:09.069Z,7.30
2019-02-06T15:09:57.866Z,7.30
2019-02-06T15:12:51.054Z,7.30
2019-02-06T15:15:31.208Z,7.30
2019-02-06T15:18:14.563Z,7.30
2019-02-06T15:20:46.646Z,7.30
2019-02-06T15:23:32.514Z,7.30
2019-02-06T15:25:56.999Z,7.30
2019-02-06T15:28:31.743Z,7.30
2019-02-06T15:31:23.183Z,7.30
2019-02-06T15:34:15.414Z,7.30
2019-02-06T15:36:57.976Z,7.30
2019-02-06T15:39:38.762Z,7.20
2019-02-06T15:42:10.339Z,7.20
2019-02-06T15:44:59.416Z,7.20
2019-02-06T15:47:34.389Z,7.20
2019-02-06T15:50:14.856Z,7.20
2019-02-06T15:53:04.619Z,7.20
2019-02-06T15:56:11.084Z,7.20
2019-02-06T15:58:57.580Z,7.20
2019-02-06T16:01:39.288Z,7.20
2019-02-06T16:04:29.799Z,7.10
2019-02-06T16:07:13.392Z,7.10
2019-02-06T16:09:54.564Z,7.10
2019-02-06T16:12:26.092Z,7.10
2019-02-06T16:14:57.641Z,7.10
2019-02-06T16:17:31.847Z,7.10
2019-02-06T16:20:12.205Z,7.00
2019-02-06T16:22:55.790Z,7.10
2019-02-06T16:25:55.980Z,7.10
2019-02-06T16:28:54.994Z,7.10
2019-02-06T16:31:50.492Z,7.10
2019-02-06T16:34:31.020Z,7.10
2019-02-06T16:37:05.442Z,7.10
2019-02-06T16:39:55.007Z,7.10
2019-02-06T16:42:47.846Z,7.10
2019-02-06T16:45:28.671Z,7.20
2019-02-06T16:48:09.257Z,7.20
2019-02-06T16:50:43.815Z,7.20
2019-02-06T16:53:39.501Z,7.20
2019-02-06T16:56:23.244Z,7.30
2019-02-06T16:59:14.177Z,7.30
2019-02-06T17:02:04.082Z,7.30
2019-02-06T17:04:53.604Z,7.30
2019-02-06T17:07:28.279Z,7.30
2019-02-06T17:10:11.901Z,7.30
2019-02-06T17:12:43.529Z,7.30
2019-02-06T17:15:26.877Z,7.30
2019-02-06T17:18:04.435Z,7.30
2019-02-06T17:20:49.379Z,7.30
2019-02-06T17:23:38.599Z,7.40
2019-02-06T17:26:19.251Z,7.30
2019-02-06T17:28:54.546Z,7.30
2019-02-06T17:31:47.120Z,7.40
2019-02-06T17:34:38.245Z,7.40
2019-02-06T17:37:16.093Z,7.30
2019-02-06T17:39:49.290Z,7.30
2019-02-06T17:42:20.822Z,7.40
2019-02-06T17:45:15.247Z,7.30
2019-02-06T17:48:01.677Z,7.30
2019-02-06T17:50:42.135Z,7.40
2019-02-06T17:53:26.371Z,7.30
2019-02-06T17:55:54.966Z,7.30
2019-02-06T17:58:23.358Z,7.30
2019-02-06T18:00:59.280Z,7.30
2019-02-06T18:03:29.089Z,7.30
2019-02-06T18:05:57.610Z,7.30
2019-02-06T18:08:26.051Z,7.30
2019-02-06T18:10:54.531Z,7.30
2019-02-06T18:13:22.887Z,7.40
2019-02-06T18:15:51.259Z,7.40
2019-02-06T18:18:19.625Z,7.40
2019-02-06T18:20:47.894Z,7.40
2019-02-06T18:23:16.197Z,7.40
2019-02-06T18:25:44.657Z,7.50
2019-02-06T18:28:13.017Z,7.40
2019-02-06T18:30:41.422Z,7.40
2019-02-06T18:33:09.800Z,7.40
2019-02-06T18:35:39.235Z,7.40
2019-02-06T18:38:07.887Z,7.40
2019-02-06T18:40:36.257Z,7.50
2019-02-06T18:43:05.014Z,7.50
2019-02-06T18:45:38.394Z,7.50
2019-02-06T18:48:10.415Z,7.50
2019-02-06T18:50:40.672Z,7.50
2019-02-06T18:53:09.136Z,7.50
2019-02-06T18:55:39.377Z,7.50
2019-02-06T18:58:09.395Z,7.50
2019-02-06T19:00:43.861Z,7.50
2019-02-06T19:03:22.329Z,7.50
2019-02-06T19:05:48.721Z,7.50
2019-02-06T19:08:17.120Z,7.50
2019-02-06T19:10:45.528Z,7.50
2019-02-06T19:13:14.449Z,7.50
2019-02-06T19:15:42.883Z,7.50
2019-02-06T19:18:11.330Z,7.50
2019-02-06T19:20:39.745Z,7.60
2019-02-06T19:23:09.615Z,7.60
2019-02-06T19:25:37.984Z,7.60
2019-02-06T19:28:06.383Z,7.60
2019-02-06T19:30:38.012Z,7.60
2019-02-06T19:33:09.153Z,7.60
2019-02-06T19:35:37.627Z,7.60
2019-02-06T19:38:06.222Z,7.60
2019-02-06T19:40:36.317Z,7.60
2019-02-06T19:43:06.947Z,7.60
2019-02-06T19:45:35.780Z,7.50
2019-02-06T19:48:15.255Z,7.60
2019-02-06T19:50:40.686Z,7.60
2019-02-06T19:53:09.009Z,7.60
2019-02-06T19:55:37.410Z,7.60
2019-02-06T19:58:07.031Z,7.60
2019-02-06T20:00:36.010Z,7.60
2019-02-06T20:03:08.262Z,7.60
2019-02-06T20:05:36.584Z,7.60
2019-02-06T20:08:06.075Z,7.70
2019-02-06T20:10:43.700Z,7.70
2019-02-06T20:13:14.526Z,7.60
2019-02-06T20:15:42.078Z,7.60
2019-02-06T20:18:10.847Z,7.60
2019-02-06T20:20:39.274Z,7.70
2019-02-06T20:23:13.033Z,7.60
2019-02-06T20:25:43.730Z,7.60
2019-02-06T20:28:15.043Z,7.60
2019-02-06T20:30:43.389Z,7.70
2019-02-06T20:33:16.546Z,7.70
2019-02-06T20:35:44.754Z,7.70
2019-02-06T20:38:13.107Z,7.70
2019-02-06T20:40:43.613Z,7.70
2019-02-06T20:43:21.756Z,7.70
2019-02-06T20:45:42.012Z,7.70
2019-02-06T20:48:10.353Z,7.70
2019-02-06T20:50:42.243Z,7.70
2019-02-06T20:53:10.611Z,7.70
2019-02-06T20:55:40.481Z,7.70
2019-02-06T20:58:08.998Z,7.70
2019-02-06T21:00:40.798Z,7.70
2019-02-06T21:03:09.101Z,7.70
2019-02-06T21:05:37.600Z,7.70
2019-02-06T21:08:06.224Z,7.70
2019-02-06T21:10:37.544Z,7.70
2019-02-06T21:13:07.443Z,7.70
2019-02-06T21:15:35.819Z,7.70
2019-02-06T21:18:04.847Z,7.70
2019-02-06T21:20:35.573Z,7.70
2019-02-06T21:23:07.716Z,7.70
2019-02-06T21:25:36.552Z,7.70
2019-02-06T21:28:04.894Z,7.70
2019-02-06T21:30:38.778Z,7.70
2019-02-06T21:33:06.460Z,7.70
2019-02-06T21:35:34.837Z,7.70
2019-02-06T21:38:04.536Z,7.70
2019-02-06T21:40:38.643Z,7.80
2019-02-06T21:43:07.411Z,7.80
2019-02-06T21:45:36.031Z,7.70
2019-02-06T21:48:05.428Z,7.80
2019-02-06T21:50:33.802Z,7.80
2019-02-06T21:53:03.344Z,7.80
2019-02-06T21:55:31.719Z,7.80
2019-02-06T21:57:59.987Z,7.80
2019-02-06T22:00:33.474Z,7.80
2019-02-06T22:03:01.947Z,7.80
2019-02-06T22:05:30.683Z,7.80
2019-02-06T22:07:59.063Z,7.80
2019-02-06T22:10:27.451Z,7.80
2019-02-06T22:12:55.779Z,7.80
2019-02-06T22:15:32.695Z,7.80
2019-02-06T22:18:01.038Z,7.80
2019-02-06T22:20:30.161Z,7.80
2019-02-06T22:22:58.514Z,7.80
2019-02-06T22:25:28.178Z,7.80
2019-02-06T22:27:56.540Z,7.80
2019-02-06T22:30:30.145Z,7.80
2019-02-06T22:33:00.379Z,7.80
2019-02-06T22:35:28.655Z,7.80
2019-02-06T22:37:57.264Z,7.80
2019-02-06T22:40:27.353Z,7.80
2019-02-06T22:42:56.234Z,7.80
2019-02-06T22:45:27.259Z,7.80
2019-02-06T22:47:55.669Z,7.80
2019-02-06T22:50:26.609Z,7.80
2019-02-06T22:52:54.969Z,7.80
2019-02-06T22:55:23.332Z,7.80
2019-02-06T22:57:51.715Z,7.80
2019-02-06T23:00:46.887Z,7.80
2019-02-06T23:03:21.039Z,7.80
2019-02-06T23:05:49.534Z,7.80
2019-02-06T23:08:17.915Z,7.80
2019-02-06T23:10:46.199Z,7.80
2019-02-06T23:13:14.994Z,7.70
2019-02-06T23:15:43.336Z,7.70
2019-02-06T23:18:11.737Z,7.70
2019-02-06T23:20:40.099Z,7.70
2019-02-06T23:23:08.420Z,7.70
2019-02-06T23:25:39.498Z,7.70
2019-02-06T23:28:08.380Z,7.70
2019-02-06T23:30:37.376Z,7.70
2019-02-06T23:33:05.741Z,7.70
2019-02-06T23:35:35.757Z,7.70
2019-02-06T23:38:04.457Z,7.70
2019-02-06T23:40:33.869Z,7.70
2019-02-06T23:43:02.616Z,7.70
2019-02-06T23:45:30.925Z,7.70
2019-02-06T23:47:59.369Z,7.70
2019-02-06T23:50:27.710Z,7.70
2019-02-06T23:52:56.086Z,7.70
2019-02-06T23:55:24.399Z,7.70
2019-02-06T23:57:52.705Z,7.70
